Strasburg, PA (17579)

3:29 PM EST on January 30, 2015 (GMT -0500)
Paradise | Change Station
CLOSE
Current Station
Personal Weather Station
Location: Paradise, PA
Elevation: 365 ft
Nearby Weather Stations
Active Advisory: Wind Advisory

Elev 365 ft 40.01 °N, 76.14 °W | Updated 2 minutes ago

Overcast
Overcast
31.6 °F
Feels Like 22 °F
N
13.0
Wind Variable Wind from NNW
Gusts 20.0 mph

Today
High -- | Low -- °F
--% Chance of Precip.
Yesterday
High -- | Low -- °F
Precip. -- in
7:15 AM 5:21 PM
Waxing Gibbous, 85% visible
Pressure 29.99 in
Visibility 10.0 miles
Clouds Few 9500 ft
Windchill 22 °F
Dew Point 20 °F
Humidity 63%
Rainfall 0.00 in
Snow Depth Not available.
UV 2 out of 12
Pollen .10 out of 12
Air Quality Not available.
Flu Activity Not available.
METAR KLNS 301953Z AUTO 30021G28KT 10SM FEW095 00/M08 A2998 RMK AO2 PK WND 30030/1854 SLP156 T00001078

More Conditions Fewer Conditions

Pressure 29.99 in
Visibility 10.0 miles
Clouds Few 9500 ft
Windchill 22 °F
Dew Point 20 °F
Humidity 63%
Rainfall 0.00 in
Snow Depth Not available.
UV 2 out of 12
Pollen .10 out of 12
Air Quality Not available.
Flu Activity Not available.
METAR KLNS 301953Z AUTO 30021G28KT 10SM FEW095 00/M08 A2998 RMK AO2 PK WND 30030/1854 SLP156 T00001078

More Conditions Fewer Conditions

10-Day Weather Forecast

Almanac

Astronomy

Jan. 30, 2015 Rise Set
Actual Time
Civil Twilight
Nautical Twilight
Astronomical Twilight
Moon
Length of Visible Light
Length of Day
Tomorrow will be .
, % of the Moon is Illuminated

Today's Extremes

State Highs State Lows

Community

WunderPhotos

Upload Photos

1,791,887 photos uploaded!

WunderBlogs® & News

Nearby

Air Quality

  Air Quality AQ Index Pollutant
Not available.

Snow Depth

Station Depth Elevation

Earthquake Activity

City Distance Mag. Time & Date
Minimum magnitude displayed is 2.5.

Coastal Water Temperatures

Place Temperature

Nearby Weather Stations